Time;durP1;ratioP1;P1;durP2;ratioP2;P2;SDS_P1;SDS_P2;PMS_P1;PMS_P2;Temp;Humidity;BMP_temperature;BMP_pressure;BME280_temperature;BME280_humidity;BME280_pressure;Samples;Min_cycle;Max_cycle;Signal;HPM_P1;HPM_P2
2023/01/30 00:01:57;;;;;;;;;33.50;30.25;;;;;6.51;64.73;102290.84;5034780;28;45394;-69
2023/01/30 00:04:22;;;;;;;;;34.75;31.75;;;;;6.40;64.76;102266.06;5072177;27;45480;-70
2023/01/30 00:09:46;;;;;;;;;38.50;30.75;;;;;6.52;64.83;102295.22;5028777;28;45568;-69
2023/01/30 00:12:12;;;;;;;;;40.50;35.25;;;;;6.24;65.40;102248.91;5039280;28;45508;-71
2023/01/30 00:14:37;;;;;;;;;42.00;33.50;;;;;6.52;65.34;102286.53;5039583;28;45381;-70
2023/01/30 00:17:03;;;;;;;;;37.00;32.25;;;;;6.56;65.21;102280.66;5065769;27;47585;-70
2023/01/30 00:19:28;;;;;;;;;40.50;33.00;;;;;6.57;65.21;102283.31;5033022;28;46673;-70
2023/01/30 00:21:53;;;;;;;;;37.75;32.50;;;;;6.58;65.57;102266.88;5034348;28;45724;-70
2023/01/30 00:24:19;;;;;;;;;37.50;32.00;;;;;6.59;65.27;102273.84;5031233;28;45496;-69
2023/01/30 00:26:45;;;;;;;;;37.75;32.25;;;;;6.58;65.26;102269.47;5035883;28;47859;-69
2023/01/30 00:29:11;;;;;;;;;25.50;24.50;;;;;6.50;65.05;102246.53;5038237;28;45328;-70
2023/01/30 00:31:36;;;;;;;;;36.75;33.00;;;;;6.51;65.35;102262.22;5035213;28;45865;-69
2023/01/30 00:34:02;;;;;;;;;43.75;36.00;;;;;6.48;65.74;102264.69;5026854;28;45502;-68
2023/01/30 00:36:28;;;;;;;;;39.75;33.00;;;;;6.47;64.95;102256.81;5030962;28;46960;-70
2023/01/30 00:38:56;;;;;;;;;34.75;32.25;;;;;6.38;65.83;102246.88;5033979;28;45522;-69
2023/01/30 00:41:22;;;;;;;;;45.50;35.50;;;;;6.23;65.82;102222.81;5024553;28;45356;-69
2023/01/30 00:49:17;;;;;;;;;46.75;35.25;;;;;6.34;65.68;102240.69;5032760;28;45732;-69
2023/01/30 00:51:43;;;;;;;;;41.50;32.75;;;;;6.36;65.99;102238.16;5042489;28;45522;-69
2023/01/30 00:54:08;;;;;;;;;41.50;32.75;;;;;6.33;65.81;102222.38;5033096;28;45516;-69
2023/01/30 00:56:34;;;;;;;;;31.00;29.50;;;;;6.41;65.85;102233.13;5034200;28;46176;-68
2023/01/30 00:59:01;;;;;;;;;34.75;30.50;;;;;6.28;65.75;102210.91;5033980;28;45650;-69
2023/01/30 01:01:26;;;;;;;;;41.50;33.00;;;;;6.23;66.23;102210.69;5030879;28;45818;-70
2023/01/30 01:03:52;;;;;;;;;35.75;30.25;;;;;6.27;66.07;102209.13;5034604;28;45452;-70
2023/01/30 01:06:18;;;;;;;;;36.25;31.50;;;;;6.09;65.91;102186.69;5034348;28;45564;-68
2023/01/30 01:08:44;;;;;;;;;36.75;31.75;;;;;6.23;66.41;102200.28;5032770;28;45752;-69
2023/01/30 01:11:10;;;;;;;;;39.75;33.00;;;;;6.25;65.64;102206.44;5037382;28;45429;-69
2023/01/30 01:13:35;;;;;;;;;47.00;35.00;;;;;6.24;66.03;102209.88;5034018;28;45536;-69
2023/01/30 01:16:01;;;;;;;;;46.00;32.75;;;;;6.22;66.54;102210.66;5033405;28;45932;-68
2023/01/30 01:18:26;;;;;;;;;39.50;33.00;;;;;6.13;67.05;102209.41;5033739;28;45679;-69
2023/01/30 01:20:52;;;;;;;;;33.00;30.00;;;;;6.14;66.26;102194.69;5033930;28;46305;-69
2023/01/30 01:23:17;;;;;;;;;34.25;30.25;;;;;6.20;66.59;102194.97;5032064;28;45804;-69
2023/01/30 01:25:44;;;;;;;;;39.75;34.50;;;;;6.18;65.72;102185.31;5035543;28;46772;-68
2023/01/30 01:28:09;;;;;;;;;38.25;31.75;;;;;6.19;66.20;102177.56;5031654;28;45712;-68
2023/01/30 01:30:37;;;;;;;;;41.50;32.75;;;;;6.23;66.24;102176.88;5034092;28;45542;-69
2023/01/30 01:33:02;;;;;;;;;35.50;32.50;;;;;6.20;65.97;102160.25;5033937;28;45498;-69
2023/01/30 01:35:28;;;;;;;;;45.00;33.00;;;;;6.16;66.30;102152.28;5033786;28;47612;-69
2023/01/30 01:37:54;;;;;;;;;36.75;31.25;;;;;6.25;65.67;102164.81;5033803;28;45390;-69
2023/01/30 01:43:22;;;;;;;;;36.50;30.75;;;;;6.33;65.49;102172.94;5033546;28;45805;-69
2023/01/30 01:45:53;;;;;;;;;36.50;31.50;;;;;6.32;65.33;102179.00;5033009;28;46268;-70
2023/01/30 01:48:33;;;;;;;;;37.75;32.25;;;;;6.30;65.65;102171.09;5032148;28;45422;-68
2023/01/30 01:51:07;;;;;;;;;34.25;31.00;;;;;6.32;65.53;102160.78;5033654;28;45354;-68
2023/01/30 01:53:39;;;;;;;;;35.25;31.00;;;;;6.37;65.32;102165.34;5033438;28;45272;-69
2023/01/30 01:56:06;;;;;;;;;36.50;30.25;;;;;6.37;65.30;102167.06;5033529;28;46758;-69
2023/01/30 01:58:51;;;;;;;;;34.75;32.00;;;;;6.41;65.30;102163.75;5037700;28;45426;-69
2023/01/30 02:01:18;;;;;;;;;37.75;31.75;;;;;6.34;65.24;102156.53;5032367;28;45410;-70
2023/01/30 02:03:49;;;;;;;;;33.75;28.50;;;;;6.37;65.92;102156.63;5033754;28;45351;-69
2023/01/30 02:06:16;;;;;;;;;34.50;31.25;;;;;6.40;65.18;102156.75;5033390;28;45773;-69
2023/01/30 02:08:50;;;;;;;;;37.50;31.25;;;;;6.37;64.99;102156.63;5033218;28;45471;-69
2023/01/30 02:11:36;;;;;;;;;40.00;32.50;;;;;6.41;65.08;102155.03;5035963;28;45507;-68
2023/01/30 02:14:02;;;;;;;;;33.50;29.25;;;;;6.42;64.80;102165.53;5037117;28;45478;-69
2023/01/30 02:16:28;;;;;;;;;34.00;31.25;;;;;6.37;65.36;102161.84;5037609;28;45399;-69
2023/01/30 02:18:54;;;;;;;;;35.50;31.50;;;;;6.33;65.48;102162.53;5036271;28;45422;-69
2023/01/30 02:21:53;;;;;;;;;39.25;33.00;;;;;6.41;65.48;102168.97;5037135;28;45545;-69
2023/01/30 02:24:31;;;;;;;;;37.00;31.50;;;;;6.42;65.10;102168.13;5035962;28;45414;-70
2023/01/30 02:27:23;;;;;;;;;40.00;32.25;;;;;6.31;65.00;102162.50;5034918;28;46565;-69
2023/01/30 02:30:27;;;;;;;;;40.25;32.50;;;;;6.14;65.51;102106.22;5033045;28;45526;-68
2023/01/30 02:32:55;;;;;;;;;34.25;31.25;;;;;6.40;65.29;102156.75;5032225;28;45428;-69
2023/01/30 02:35:36;;;;;;;;;27.75;27.75;;;;;6.44;64.57;102156.06;5032106;28;45504;-69
2023/01/30 02:38:20;;;;;;;;;35.75;28.50;;;;;6.47;64.85;102160.50;5035694;28;45595;-70
2023/01/30 02:40:55;;;;;;;;;31.50;30.00;;;;;6.44;64.74;102152.59;5019400;28;45285;-68
2023/01/30 02:43:53;;;;;;;;;35.25;30.00;;;;;6.47;64.39;102147.50;5034174;28;45422;-68
2023/01/30 02:46:32;;;;;;;;;37.00;30.50;;;;;6.50;64.51;102148.53;5050001;28;45486;-68
2023/01/30 02:49:24;;;;;;;;;36.25;31.50;;;;;6.45;64.75;102146.53;5033409;28;46379;-69
2023/01/30 02:51:51;;;;;;;;;36.00;31.50;;;;;6.34;64.62;102141.78;5032505;28;45415;-69
2023/01/30 02:54:17;;;;;;;;;33.75;28.00;;;;;6.15;65.35;102108.91;5035270;28;45433;-69
2023/01/30 02:56:56;;;;;;;;;34.25;31.25;;;;;6.48;64.71;102163.19;5048298;28;45471;-69
2023/01/30 02:59:46;;;;;;;;;38.25;31.25;;;;;6.50;64.38;102156.34;5037963;28;46701;-69
2023/01/30 03:02:17;;;;;;;;;35.75;30.25;;;;;6.54;64.35;102159.94;5040973;28;45440;-70
2023/01/30 03:04:58;;;;;;;;;34.75;29.50;;;;;6.49;64.53;102162.34;5038449;28;45414;-69
2023/01/30 03:07:24;;;;;;;;;34.50;32.50;;;;;6.52;64.38;102166.78;5034852;28;45679;-68
2023/01/30 03:09:59;;;;;;;;;36.50;28.00;;;;;6.56;64.89;102163.50;5035886;28;45588;-69
2023/01/30 03:12:51;;;;;;;;;27.50;25.50;;;;;6.36;64.32;102116.72;5036831;28;45713;-68
2023/01/30 03:15:34;;;;;;;;;32.50;30.50;;;;;6.59;64.04;102143.66;5037751;28;45690;-69
2023/01/30 03:18:01;;;;;;;;;39.25;31.25;;;;;6.64;64.41;102151.66;5035621;28;45767;-69
2023/01/30 03:20:27;;;;;;;;;40.25;32.50;;;;;6.56;64.13;102140.94;5054591;28;48118;-69
2023/01/30 03:22:53;;;;;;;;;34.00;30.00;;;;;6.56;64.43;102155.69;5039216;28;45462;-70
2023/01/30 03:25:25;;;;;;;;;36.50;32.00;;;;;6.50;64.73;102145.94;5036090;28;45331;-68
2023/01/30 03:27:52;;;;;;;;;28.75;27.50;;;;;6.57;64.20;102160.06;5036071;28;45840;-69
2023/01/30 03:30:18;;;;;;;;;38.75;31.00;;;;;6.59;64.74;102161.00;5035566;28;46296;-68
2023/01/30 03:32:44;;;;;;;;;40.75;30.75;;;;;6.63;65.18;102149.91;5036552;28;45473;-68
2023/01/30 03:35:09;;;;;;;;;34.00;29.75;;;;;6.63;65.15;102157.72;5035946;28;45420;-68
2023/01/30 03:37:35;;;;;;;;;33.25;28.00;;;;;6.64;65.38;102149.06;5040575;28;45384;-68
2023/01/30 03:40:01;;;;;;;;;34.50;29.00;;;;;6.60;65.69;102152.41;5025769;28;45597;-69
2023/01/30 03:42:26;;;;;;;;;33.25;29.75;;;;;6.59;65.35;102142.78;5029126;28;46085;-69
2023/01/30 03:44:52;;;;;;;;;34.25;30.00;;;;;6.60;66.04;102141.97;5033019;28;45697;-68
2023/01/30 03:47:18;;;;;;;;;40.25;31.50;;;;;6.57;65.82;102129.72;5036774;28;46221;-68
2023/01/30 03:49:44;;;;;;;;;30.00;29.50;;;;;6.56;66.10;102129.66;5043399;28;46848;-69
2023/01/30 03:52:09;;;;;;;;;34.00;30.50;;;;;6.54;66.10;102133.91;5036058;28;45457;-68
2023/01/30 03:54:35;;;;;;;;;31.25;29.25;;;;;6.46;66.28;102117.09;5039487;28;45408;-69
2023/01/30 03:57:00;;;;;;;;;39.00;28.50;;;;;6.41;66.34;102100.38;5040269;28;45437;-69
2023/01/30 03:59:26;;;;;;;;;33.50;29.50;;;;;6.53;66.82;102121.72;5036820;28;46437;-69
2023/01/30 04:01:51;;;;;;;;;32.00;27.50;;;;;6.53;66.70;102127.81;5034821;28;45399;-69
2023/01/30 04:04:17;;;;;;;;;37.00;29.25;;;;;6.51;66.84;102118.19;5035007;28;45355;-69
2023/01/30 04:06:42;;;;;;;;;35.25;30.75;;;;;6.51;66.55;102105.16;5051074;28;45508;-70
2023/01/30 04:09:09;;;;;;;;;35.00;30.50;;;;;6.58;66.54;102109.78;5034607;28;46070;-69
2023/01/30 04:11:35;;;;;;;;;31.75;29.25;;;;;6.51;66.85;102102.56;5036641;28;45469;-70
2023/01/30 04:14:00;;;;;;;;;28.25;26.50;;;;;6.61;66.59;102106.41;5071351;28;45483;-70
2023/01/30 04:16:26;;;;;;;;;31.25;28.00;;;;;6.56;66.30;102107.13;5034508;28;45556;-68
2023/01/30 04:18:53;;;;;;;;;34.00;30.50;;;;;6.58;66.96;102115.00;5033417;28;47016;-68
2023/01/30 04:21:19;;;;;;;;;34.50;29.25;;;;;6.53;66.45;102114.81;5036257;28;45352;-69
2023/01/30 04:23:44;;;;;;;;;37.00;30.00;;;;;6.58;66.62;102117.59;5034756;28;45465;-68
2023/01/30 04:26:10;;;;;;;;;35.50;30.00;;;;;6.57;66.60;102121.94;5035341;28;45946;-69
2023/01/30 04:28:36;;;;;;;;;32.50;30.00;;;;;6.52;66.90;102107.81;5037494;28;45524;-70
2023/01/30 04:31:02;;;;;;;;;32.00;27.50;;;;;6.59;66.38;102116.75;5035658;28;45487;-70
2023/01/30 04:33:28;;;;;;;;;35.50;31.00;;;;;6.59;66.72;102103.75;5034999;28;45575;-69
2023/01/30 04:35:56;;;;;;;;;32.75;30.00;;;;;6.52;66.41;102083.50;5039050;28;45520;-68
2023/01/30 04:38:22;;;;;;;;;35.25;30.00;;;;;6.62;66.83;102103.88;5054304;28;46649;-68
2023/01/30 04:40:50;;;;;;;;;30.00;26.50;;;;;6.62;66.53;102095.16;5036251;28;45420;-69
2023/01/30 04:43:15;;;;;;;;;34.00;27.75;;;;;6.61;66.90;102089.06;5044468;28;45552;-69
2023/01/30 04:45:45;;;;;;;;;38.50;31.00;;;;;6.58;67.04;102083.75;5037665;28;45353;-70
2023/01/30 04:48:11;;;;;;;;;35.50;30.25;;;;;6.51;67.16;102092.16;5054091;28;45365;-69
2023/01/30 04:50:38;;;;;;;;;35.50;25.75;;;;;6.41;67.34;102077.88;5038635;28;45415;-68
2023/01/30 04:53:04;;;;;;;;;38.75;31.50;;;;;6.53;67.01;102100.91;5037519;28;45438;-69
2023/01/30 04:55:30;;;;;;;;;34.50;29.50;;;;;6.51;66.77;102106.03;5036444;28;45384;-67
2023/01/30 04:57:56;;;;;;;;;40.25;32.00;;;;;6.51;67.29;102102.56;5050361;28;46993;-69
2023/01/30 05:00:22;;;;;;;;;37.00;30.50;;;;;6.44;67.30;102096.22;5037968;28;45454;-68
2023/01/30 05:02:47;;;;;;;;;36.75;30.00;;;;;6.41;67.15;102098.69;5034742;28;45502;-70
2023/01/30 05:05:13;;;;;;;;;35.00;30.00;;;;;6.35;67.96;102082.81;5034716;28;45399;-68
2023/01/30 05:07:38;;;;;;;;;34.75;29.00;;;;;6.39;67.72;102089.94;5037873;28;48131;-69
2023/01/30 05:10:05;;;;;;;;;30.25;26.25;;;;;6.42;67.09;102092.66;5036755;28;45540;-69
2023/01/30 05:12:30;;;;;;;;;27.75;27.50;;;;;6.48;67.23;102092.91;5034206;28;45343;-69
2023/01/30 05:14:56;;;;;;;;;30.50;27.75;;;;;6.51;67.45;102103.44;5036678;28;45822;-68
2023/01/30 05:17:21;;;;;;;;;32.25;27.50;;;;;6.48;67.96;102087.72;5054025;28;46656;-69
2023/01/30 05:19:47;;;;;;;;;32.25;29.50;;;;;6.44;67.45;102077.09;5037867;28;45419;-69
2023/01/30 05:22:13;;;;;;;;;31.50;29.50;;;;;6.52;67.72;102088.69;5038680;28;45410;-69
2023/01/30 05:24:38;;;;;;;;;35.75;30.00;;;;;6.58;67.77;102110.66;5036600;28;45680;-69
2023/01/30 05:27:04;;;;;;;;;38.50;32.00;;;;;6.50;68.54;102099.06;5032300;28;46320;-69
2023/01/30 05:29:29;;;;;;;;;36.25;30.25;;;;;6.38;68.10;102090.75;5037148;28;45370;-69
2023/01/30 05:31:55;;;;;;;;;38.25;29.75;;;;;6.37;68.54;102087.25;5033566;28;45481;-69
2023/01/30 05:34:21;;;;;;;;;37.50;30.75;;;;;6.42;68.59;102095.25;5033664;28;45382;-69
2023/01/30 05:36:47;;;;;;;;;30.75;27.25;;;;;6.45;68.09;102102.28;5033390;28;45525;-69
2023/01/30 05:39:13;;;;;;;;;32.00;30.25;;;;;6.31;68.55;102068.81;5033972;28;45561;-69
2023/01/30 05:41:38;;;;;;;;;30.75;30.00;;;;;6.28;68.74;102073.88;5034723;28;45531;-69
2023/01/30 05:44:05;;;;;;;;;34.75;29.50;;;;;6.34;68.69;102079.34;5022285;28;47122;-68
2023/01/30 05:46:30;;;;;;;;;30.25;28.50;;;;;6.46;68.08;102091.09;5033864;28;46158;-69
2023/01/30 05:48:56;;;;;;;;;34.75;29.50;;;;;6.51;68.08;102090.44;5034607;28;45236;-69
2023/01/30 05:51:24;;;;;;;;;36.50;30.25;;;;;6.53;68.51;102083.56;5032561;28;45379;-70
2023/01/30 05:53:50;;;;;;;;;29.00;26.75;;;;;6.45;68.01;102066.75;5026947;28;45443;-70
2023/01/30 05:56:16;;;;;;;;;33.50;31.50;;;;;6.54;68.30;102087.94;5033508;28;45427;-69
2023/01/30 05:58:42;;;;;;;;;35.25;28.00;;;;;6.58;68.11;102084.63;5034165;28;46888;-69
2023/01/30 06:01:11;;;;;;;;;38.50;31.50;;;;;6.60;68.72;102089.91;5037178;28;45381;-69
2023/01/30 06:03:37;;;;;;;;;37.50;31.50;;;;;6.50;68.38;102072.13;5037593;28;45339;-69
2023/01/30 06:06:05;;;;;;;;;40.25;30.50;;;;;6.63;68.98;102089.16;5052488;28;47492;-69
2023/01/30 06:08:31;;;;;;;;;35.50;30.00;;;;;6.63;68.67;102081.34;5052799;28;45445;-69
2023/01/30 06:11:04;;;;;;;;;34.25;30.00;;;;;6.62;68.87;102084.75;5053229;28;45644;-68
2023/01/30 06:13:30;;;;;;;;;35.25;29.75;;;;;6.52;69.80;102073.97;5037867;28;45370;-68
2023/01/30 06:15:55;;;;;;;;;35.50;27.50;;;;;6.53;69.62;102078.38;5051895;28;45870;-68
2023/01/30 06:18:21;;;;;;;;;38.50;27.50;;;;;6.27;70.41;102037.41;5034033;28;45410;-69
2023/01/30 06:20:48;;;;;;;;;32.75;28.75;;;;;6.41;70.80;102062.25;5034002;28;45505;-69
2023/01/30 06:23:14;;;;;;;;;31.75;27.75;;;;;6.40;70.86;102052.66;5050714;28;45547;-69
2023/01/30 06:25:44;;;;;;;;;35.00;30.00;;;;;6.27;71.17;102043.47;5033586;28;45339;-69
2023/01/30 06:28:10;;;;;;;;;36.00;32.00;;;;;6.39;71.39;102050.03;5031733;28;45430;-70
2023/01/30 06:30:37;;;;;;;;;40.50;31.00;;;;;6.29;71.33;102025.34;5048669;28;45392;-68
2023/01/30 06:33:03;;;;;;;;;30.50;29.50;;;;;6.39;71.36;102052.63;5053557;28;45602;-70
2023/01/30 06:35:28;;;;;;;;;33.25;28.75;;;;;6.45;70.67;102063.25;5053089;28;48141;-69
2023/01/30 06:37:54;;;;;;;;;29.50;27.25;;;;;6.36;70.51;102051.66;5036726;28;45529;-70
2023/01/30 06:40:19;;;;;;;;;32.25;29.00;;;;;6.33;70.69;102050.63;5035322;28;45434;-69
2023/01/30 06:42:48;;;;;;;;;30.75;27.25;;;;;6.53;70.63;102096.59;5037278;28;45992;-70
2023/01/30 06:45:16;;;;;;;;;33.50;27.25;;;;;6.50;70.76;102080.84;5036473;28;46548;-69
2023/01/30 06:47:51;;;;;;;;;33.00;27.00;;;;;6.62;70.12;102096.06;5052307;28;45601;-70
2023/01/30 06:50:20;;;;;;;;;32.50;27.75;;;;;6.59;71.24;102104.63;5035714;28;45438;-68
2023/01/30 06:52:48;;;;;;;;;33.25;28.50;;;;;6.54;71.46;102110.47;5023128;28;45395;-69
2023/01/30 06:55:16;;;;;;;;;32.50;27.75;;;;;6.51;70.50;102112.97;5036443;28;45712;-69
2023/01/30 06:57:43;;;;;;;;;28.00;25.50;;;;;6.61;70.56;102114.22;5034929;28;45525;-69
2023/01/30 07:00:14;;;;;;;;;35.75;25.00;;;;;6.67;70.77;102120.56;5069974;28;45421;-69
2023/01/30 07:02:40;;;;;;;;;29.50;24.25;;;;;6.70;70.51;102123.28;5056072;28;45504;-69
2023/01/30 07:05:08;;;;;;;;;27.50;24.00;;;;;6.76;71.03;102122.63;5035940;28;46496;-70
2023/01/30 07:07:34;;;;;;;;;31.25;25.00;;;;;6.74;70.80;102114.78;5030815;28;45497;-70
2023/01/30 07:10:01;;;;;;;;;22.75;21.00;;;;;6.76;70.84;102110.53;5035375;28;45252;-69
2023/01/30 07:12:26;;;;;;;;;27.75;24.00;;;;;6.84;70.24;102138.59;5040341;28;45464;-69
2023/01/30 07:14:53;;;;;;;;;25.75;21.75;;;;;6.79;70.69;102134.06;5072274;28;46083;-70
2023/01/30 07:17:21;;;;;;;;;33.25;25.75;;;;;6.72;70.81;102115.56;5036361;28;45625;-69
2023/01/30 07:19:47;;;;;;;;;30.25;25.00;;;;;6.79;70.79;102128.88;5035534;28;45486;-70
2023/01/30 07:22:13;;;;;;;;;29.25;25.75;;;;;6.85;71.05;102143.84;5035780;28;45608;-70
2023/01/30 07:24:41;;;;;;;;;29.75;27.25;;;;;6.78;70.84;102127.06;5035823;28;45549;-70
2023/01/30 07:27:09;;;;;;;;;26.50;25.00;;;;;6.83;71.16;102126.38;5034153;28;45495;-69
2023/01/30 07:29:35;;;;;;;;;30.75;26.75;;;;;6.87;71.47;102138.69;5036515;28;45836;-71
2023/01/30 07:32:04;;;;;;;;;28.00;26.00;;;;;6.86;71.74;102132.63;5040055;28;45382;-69
2023/01/30 07:34:30;;;;;;;;;31.75;26.50;;;;;6.79;70.81;102126.25;5036025;28;46121;-70
2023/01/30 07:36:55;;;;;;;;;26.75;24.50;;;;;6.89;71.32;102140.53;5033809;28;45366;-69
2023/01/30 07:39:21;;;;;;;;;25.00;22.00;;;;;6.91;70.97;102140.59;5035352;28;45601;-69
2023/01/30 07:41:47;;;;;;;;;24.75;23.75;;;;;6.96;71.08;102150.38;5034263;28;45641;-69
2023/01/30 07:44:13;;;;;;;;;31.75;23.25;;;;;6.99;71.55;102152.19;5045951;28;45529;-68
2023/01/30 07:46:38;;;;;;;;;31.75;26.00;;;;;6.95;71.18;102143.41;5034953;28;46150;-69
2023/01/30 07:49:05;;;;;;;;;25.50;23.25;;;;;7.04;71.54;102155.88;5035339;28;45536;-69
2023/01/30 07:51:31;;;;;;;;;30.50;26.50;;;;;7.03;71.82;102151.50;5030414;28;45754;-69
2023/01/30 07:53:56;;;;;;;;;31.25;26.75;;;;;7.04;71.68;102147.19;5036954;28;46539;-69
2023/01/30 07:56:23;;;;;;;;;32.25;27.00;;;;;7.03;72.00;102155.84;5039293;28;45445;-70
2023/01/30 07:58:49;;;;;;;;;26.75;23.75;;;;;7.02;72.08;102147.09;5039321;28;45442;-69
2023/01/30 08:01:16;;;;;;;;;28.75;24.25;;;;;7.04;71.93;102149.78;5037054;28;45445;-69
2023/01/30 08:03:44;;;;;;;;;30.75;25.00;;;;;7.07;72.97;102150.81;5035359;28;45695;-71
2023/01/30 08:06:12;;;;;;;;;24.25;24.00;;;;;7.07;73.10;102150.81;5039402;28;45347;-70
2023/01/30 08:08:38;;;;;;;;;36.00;27.75;;;;;6.98;72.93;102135.69;5038791;28;45467;-69
2023/01/30 08:11:05;;;;;;;;;29.25;25.25;;;;;7.06;73.32;102142.91;5035611;28;45517;-72
2023/01/30 08:13:31;;;;;;;;;26.50;22.75;;;;;7.11;72.53;102147.47;5052363;28;45485;-69
2023/01/30 08:16:04;;;;;;;;;25.50;23.75;;;;;7.07;73.13;102142.06;5038534;28;45779;-69
2023/01/30 08:18:32;;;;;;;;;27.50;25.00;;;;;7.13;73.02;102156.22;5038365;28;45532;-69
2023/01/30 08:21:02;;;;;;;;;31.00;26.00;;;;;7.12;73.14;102145.75;5035469;28;45531;-70
2023/01/30 08:23:28;;;;;;;;;24.00;22.00;;;;;7.21;72.90;102147.00;5034407;28;45535;-68
2023/01/30 08:26:00;;;;;;;;;26.50;25.50;;;;;7.20;72.80;102147.81;5067160;28;45510;-68
2023/01/30 08:28:27;;;;;;;;;28.25;22.25;;;;;7.13;72.98;102135.38;5037935;28;45516;-68
2023/01/30 08:30:56;;;;;;;;;29.00;24.50;;;;;7.24;73.59;102164.47;5039559;28;45407;-69
2023/01/30 08:33:22;;;;;;;;;22.25;18.50;;;;;7.29;72.94;102164.66;5039117;28;46320;-69
2023/01/30 08:35:49;;;;;;;;;28.25;22.50;;;;;7.32;73.01;102163.03;5039413;28;45423;-69
2023/01/30 08:38:15;;;;;;;;;30.50;27.00;;;;;7.31;73.10;102162.97;5052957;28;45568;-67
2023/01/30 08:40:40;;;;;;;;;23.50;22.50;;;;;7.27;73.22;102163.72;5050704;28;45717;-68
2023/01/30 08:43:06;;;;;;;;;27.50;25.75;;;;;7.26;73.28;102160.22;5034352;28;45480;-68
2023/01/30 08:45:32;;;;;;;;;29.75;24.50;;;;;7.27;73.01;102169.81;5034558;28;45754;-68
2023/01/30 08:47:59;;;;;;;;;29.50;26.75;;;;;7.30;72.97;102169.03;5035013;28;45485;-68
2023/01/30 08:50:25;;;;;;;;;32.75;28.50;;;;;7.25;73.27;102150.59;5030278;28;45569;-68
2023/01/30 08:52:51;;;;;;;;;29.25;25.75;;;;;7.27;73.09;102153.28;5024802;28;46350;-69
2023/01/30 08:55:17;;;;;;;;;27.25;23.75;;;;;7.41;72.65;102166.00;5037512;28;46144;-69
2023/01/30 08:57:43;;;;;;;;;31.75;24.50;;;;;7.43;72.61;102166.94;5038903;28;45349;-70
2023/01/30 09:00:11;;;;;;;;;32.50;27.00;;;;;7.43;72.54;102173.88;5034910;28;45490;-71
2023/01/30 09:02:37;;;;;;;;;24.25;24.25;;;;;7.44;72.34;102176.53;5033839;28;47385;-69
2023/01/30 09:05:03;;;;;;;;;22.00;20.25;;;;;7.44;72.61;102178.25;5029890;28;45517;-70
2023/01/30 09:07:29;;;;;;;;;26.00;22.50;;;;;7.47;72.53;102191.41;5034556;28;45828;-69
2023/01/30 09:09:55;;;;;;;;;26.75;23.50;;;;;7.47;72.49;102188.78;5035658;28;45445;-70
2023/01/30 09:12:20;;;;;;;;;23.25;21.25;;;;;7.53;72.35;102198.59;5033871;28;46141;-69
2023/01/30 09:14:46;;;;;;;;;24.00;21.00;;;;;7.51;72.51;102185.47;5037408;28;45428;-70
2023/01/30 09:17:12;;;;;;;;;24.75;23.75;;;;;7.59;72.19;102194.50;5034663;28;45505;-69
2023/01/30 09:19:38;;;;;;;;;22.25;22.00;;;;;7.58;72.29;102178.78;5034241;28;45714;-69
2023/01/30 09:22:06;;;;;;;;;24.25;22.00;;;;;7.58;71.86;102190.09;5032761;28;47992;-69
2023/01/30 09:24:31;;;;;;;;;23.25;22.25;;;;;7.60;72.01;102188.44;5042914;28;45763;-69
2023/01/30 09:26:57;;;;;;;;;29.25;24.25;;;;;7.63;72.20;102188.53;5037073;28;45463;-69
2023/01/30 09:29:24;;;;;;;;;28.75;25.25;;;;;7.60;72.22;102192.78;5037369;28;45461;-70
2023/01/30 09:31:50;;;;;;;;;24.50;20.25;;;;;7.56;72.20;102170.00;5034984;28;47535;-69
2023/01/30 09:34:15;;;;;;;;;27.75;20.75;;;;;7.67;72.27;102193.91;5032600;28;45348;-70
2023/01/30 09:36:41;;;;;;;;;21.25;18.50;;;;;7.52;72.25;102173.31;5033945;28;45581;-69
2023/01/30 09:39:06;;;;;;;;;22.50;19.25;;;;;7.58;72.38;102184.88;5034167;28;46108;-70
2023/01/30 09:41:56;;;;;;;;;24.50;22.25;;;;;7.68;72.57;102195.66;5032186;28;46587;-70
2023/01/30 09:44:39;;;;;;;;;23.25;21.50;;;;;7.71;72.36;102190.53;5033600;28;45434;-69
2023/01/30 09:47:13;;;;;;;;;20.25;19.00;;;;;7.70;72.24;102181.84;5033995;28;45548;-70
2023/01/30 09:49:39;;;;;;;;;24.25;20.00;;;;;7.79;72.44;102181.31;5032683;28;45391;-69
2023/01/30 09:52:23;;;;;;;;;17.25;16.50;;;;;7.78;72.25;102176.91;5032593;28;47710;-68
2023/01/30 09:54:54;;;;;;;;;21.25;20.00;;;;;7.83;72.51;102175.34;5037330;28;45427;-69
2023/01/30 09:57:23;;;;;;;;;19.25;18.00;;;;;7.84;72.82;102180.63;5050804;28;45394;-69
2023/01/30 10:00:11;;;;;;;;;20.50;17.50;;;;;7.88;72.82;102179.03;5033127;28;45969;-71
2023/01/30 10:02:50;;;;;;;;;20.25;16.00;;;;;7.79;73.09;102165.66;5032256;28;45465;-68
2023/01/30 10:05:16;;;;;;;;;20.50;17.00;;;;;7.88;73.04;102185.94;5027280;28;45939;-70
2023/01/30 10:07:55;;;;;;;;;18.50;17.75;;;;;7.96;72.71;102193.22;5032760;28;45850;-70
2023/01/30 10:10:48;;;;;;;;;22.75;17.00;;;;;7.96;72.91;102197.56;5024274;28;45733;-70
2023/01/30 10:13:30;;;;;;;;;16.50;16.00;;;;;8.01;72.84;102207.31;5032779;28;46688;-70
2023/01/30 10:16:03;;;;;;;;;22.00;17.25;;;;;8.00;73.32;102202.94;5026321;28;45276;-70
2023/01/30 10:19:10;;;;;;;;;21.00;18.25;;;;;8.03;73.25;102204.78;5022266;28;45449;-69
2023/01/30 10:22:03;;;;;;;;;19.75;16.75;;;;;8.05;73.05;102219.66;5085603;27;45448;-70
2023/01/30 10:24:51;;;;;;;;;18.00;16.75;;;;;8.11;73.34;102220.69;5077220;27;46448;-70
2023/01/30 10:27:17;;;;;;;;;24.00;18.75;;;;;8.11;73.14;102220.69;5045100;28;45425;-70
2023/01/30 10:29:51;;;;;;;;;21.50;16.75;;;;;8.18;73.30;102220.97;5037550;28;45521;-70
2023/01/30 10:32:25;;;;;;;;;23.50;19.25;;;;;8.23;73.08;102223.75;5036697;28;45437;-71
2023/01/30 10:34:55;;;;;;;;;18.25;17.00;;;;;8.26;73.09;102222.13;5032194;28;47227;-69
2023/01/30 10:37:29;;;;;;;;;15.25;14.50;;;;;8.30;73.00;102220.50;5021043;28;46800;-68
2023/01/30 10:40:18;;;;;;;;;17.50;17.25;;;;;8.28;72.72;102211.72;5032697;28;45477;-71
2023/01/30 10:42:51;;;;;;;;;18.75;17.00;;;;;8.34;72.73;102211.97;5035893;28;45730;-70
2023/01/30 10:45:26;;;;;;;;;17.25;16.50;;;;;8.28;72.83;102183.94;5033416;28;47606;-68
2023/01/30 10:48:04;;;;;;;;;19.00;17.00;;;;;8.37;73.11;102180.72;5033465;28;45347;-71
2023/01/30 10:50:44;;;;;;;;;18.50;15.00;;;;;8.51;72.52;102185.56;5033260;28;45883;-69
2023/01/30 10:53:21;;;;;;;;;16.25;13.75;;;;;8.54;72.78;102188.28;5048206;28;45806;-71
2023/01/30 10:55:54;;;;;;;;;18.00;14.00;;;;;8.51;72.55;102157.72;5032538;28;45441;-69
2023/01/30 10:58:32;;;;;;;;;18.00;17.25;;;;;8.71;72.60;102171.47;5023029;28;45611;-68
2023/01/30 11:01:08;;;;;;;;;21.25;13.25;;;;;8.78;72.15;102183.88;5065445;27;45676;-69
2023/01/30 11:03:44;;;;;;;;;18.00;14.75;;;;;8.85;72.20;102178.03;5033128;28;45366;-69
2023/01/30 11:06:22;;;;;;;;;15.00;14.25;;;;;8.90;71.64;102191.22;5030995;28;45918;-69
2023/01/30 11:08:49;;;;;;;;;21.00;14.50;;;;;8.94;71.77;102182.63;5032402;28;45400;-70
2023/01/30 11:11:31;;;;;;;;;17.50;15.00;;;;;9.00;71.67;102177.63;5032330;28;45626;-70
2023/01/30 11:14:11;;;;;;;;;19.25;16.25;;;;;8.98;71.50;102178.41;5033123;28;45875;-73
2023/01/30 11:16:55;;;;;;;;;20.25;17.50;;;;;8.83;72.03;102170.97;5032869;28;45466;-70
2023/01/30 11:19:31;;;;;;;;;15.75;13.75;;;;;8.88;71.76;102188.56;5034064;28;45569;-71
2023/01/30 11:22:02;;;;;;;;;13.50;12.50;;;;;8.86;72.10;102186.75;5037050;28;45615;-73
2023/01/30 11:24:44;;;;;;;;;17.25;17.00;;;;;8.76;72.04;102154.22;5036413;28;45849;-71
2023/01/30 11:27:16;;;;;;;;;16.75;15.25;;;;;8.90;72.69;102173.81;5038194;28;46123;-72
2023/01/30 11:29:42;;;;;;;;;18.00;12.75;;;;;8.94;71.95;102177.41;5037442;28;45554;-73
2023/01/30 11:32:14;;;;;;;;;13.75;11.25;;;;;8.91;72.17;102180.81;5034627;28;45358;-74
2023/01/30 11:34:42;;;;;;;;;14.25;11.50;;;;;8.90;72.11;102162.50;5038489;28;45543;-72
2023/01/30 11:37:33;;;;;;;;;10.25;10.00;;;;;8.90;72.00;102157.25;5036513;28;45509;-74
2023/01/30 11:40:24;;;;;;;;;14.50;13.00;;;;;8.83;71.80;102139.63;5039484;28;45284;-71